createdAt,value
2023-05-08T00:00:22.778Z,70.49
2023-05-08T00:03:14.201Z,70.51
2023-05-08T00:05:45.442Z,70.77
2023-05-08T00:08:16.965Z,70.72
2023-05-08T00:10:46.597Z,70.74
2023-05-08T00:13:17.979Z,71.21
2023-05-08T00:15:47.768Z,71.07
2023-05-08T00:18:18.941Z,71.15
2023-05-08T00:20:49.976Z,71.16
2023-05-08T00:23:19.464Z,71.37
2023-05-08T00:25:50.546Z,71.46
2023-05-08T00:28:19.976Z,71.61
2023-05-08T00:30:51.080Z,71.76
2023-05-08T00:33:20.500Z,71.90
2023-05-08T00:35:51.575Z,72.06
2023-05-08T00:38:22.734Z,72.26
2023-05-08T00:40:53.863Z,72.15
2023-05-08T00:43:28.086Z,72.53
2023-05-08T00:46:01.202Z,72.52
2023-05-08T00:48:35.156Z,72.78
2023-05-08T00:51:09.634Z,72.63
2023-05-08T00:53:43.301Z,72.81
2023-05-08T00:56:16.914Z,72.60
2023-05-08T00:58:48.299Z,72.53
2023-05-08T01:01:19.910Z,72.68
2023-05-08T01:03:51.271Z,72.71
2023-05-08T01:06:22.325Z,72.87
2023-05-08T01:08:53.363Z,72.86
2023-05-08T01:11:30.749Z,73.11
2023-05-08T01:14:12.643Z,73.14
2023-05-08T01:17:11.858Z,73.58
2023-05-08T01:20:10.157Z,73.28
2023-05-08T01:23:03.622Z,73.37
2023-05-08T01:26:03.745Z,73.16
2023-05-08T01:29:14.459Z,73.36
2023-05-08T01:32:07.217Z,73.41
2023-05-08T01:34:45.892Z,73.16
2023-05-08T01:37:21.337Z,73.66
2023-05-08T01:40:02.258Z,73.96
2023-05-08T01:42:42.531Z,74.13
2023-05-08T01:45:20.037Z,74.28
2023-05-08T01:48:02.193Z,74.59
2023-05-08T01:50:37.895Z,74.49
2023-05-08T01:53:14.631Z,74.50
2023-05-08T01:55:48.659Z,74.67
2023-05-08T01:58:20.860Z,74.72
2023-05-08T02:00:52.879Z,74.51
2023-05-08T02:03:26.365Z,74.43
2023-05-08T02:05:58.909Z,74.46
2023-05-08T02:08:33.318Z,74.53
2023-05-08T02:11:06.297Z,74.66
2023-05-08T02:13:38.408Z,74.68
2023-05-08T02:16:12.148Z,74.70
2023-05-08T02:18:50.991Z,74.77
2023-05-08T02:21:23.582Z,74.66
2023-05-08T02:23:55.543Z,74.90
2023-05-08T02:26:28.705Z,74.94
2023-05-08T02:29:01.595Z,74.86
2023-05-08T02:31:33.167Z,75.12
2023-05-08T02:34:06.059Z,74.85
2023-05-08T02:36:39.142Z,74.97
2023-05-08T02:39:13.037Z,75.07
2023-05-08T02:41:44.547Z,75.06
2023-05-08T02:44:17.128Z,74.94
2023-05-08T02:46:54.381Z,75.07
2023-05-08T02:49:33.348Z,75.18
2023-05-08T02:52:10.187Z,75.03
2023-05-08T02:54:44.575Z,75.27
2023-05-08T02:57:24.249Z,75.18
2023-05-08T03:00:02.084Z,75.08
2023-05-08T03:02:40.925Z,74.91
2023-05-08T03:05:18.140Z,74.87
2023-05-08T03:07:52.284Z,75.03
2023-05-08T03:10:29.560Z,75.02
2023-05-08T03:13:03.930Z,75.44
2023-05-08T03:15:43.175Z,75.80
2023-05-08T03:18:19.061Z,75.99
2023-05-08T03:20:54.016Z,76.33
2023-05-08T03:23:27.556Z,76.17
2023-05-08T03:26:02.169Z,76.40
2023-05-08T03:28:36.775Z,76.53
2023-05-08T03:31:08.630Z,76.42
2023-05-08T03:33:43.105Z,76.56
2023-05-08T03:36:14.743Z,76.63
2023-05-08T03:38:46.030Z,76.45
2023-05-08T03:41:17.123Z,76.65
2023-05-08T03:43:49.203Z,76.98
2023-05-08T03:46:20.991Z,77.11
2023-05-08T03:48:52.947Z,77.21
2023-05-08T03:51:24.956Z,77.28
2023-05-08T03:53:56.140Z,77.21
2023-05-08T03:56:27.389Z,77.27
2023-05-08T03:59:09.317Z,77.39
2023-05-08T04:01:49.872Z,77.73
2023-05-08T04:04:27.098Z,77.62
2023-05-08T04:07:09.177Z,77.70
2023-05-08T04:09:45.266Z,77.75
2023-05-08T04:12:21.958Z,77.74
2023-05-08T04:14:57.364Z,77.60
2023-05-08T04:17:40.561Z,77.55
2023-05-08T04:20:16.356Z,76.93
2023-05-08T04:22:48.641Z,75.74
2023-05-08T04:25:22.303Z,74.68
2023-05-08T04:27:56.176Z,73.48
2023-05-08T04:30:27.929Z,72.91
2023-05-08T04:33:00.384Z,72.13
2023-05-08T04:35:32.254Z,71.38
2023-05-08T04:38:03.569Z,71.43
2023-05-08T04:40:34.857Z,71.13
2023-05-08T04:43:05.921Z,71.77
2023-05-08T04:45:36.962Z,72.00
2023-05-08T04:48:09.245Z,71.86
2023-05-08T04:50:40.842Z,70.66
2023-05-08T04:53:11.730Z,69.15
2023-05-08T04:55:43.034Z,67.60
2023-05-08T04:58:14.829Z,66.95
2023-05-08T05:00:46.079Z,65.94
2023-05-08T05:03:17.469Z,64.50
2023-05-08T05:05:48.360Z,64.05
2023-05-08T05:08:19.265Z,64.03
2023-05-08T05:10:50.380Z,64.79
2023-05-08T05:13:21.975Z,65.25
2023-05-08T05:15:54.487Z,66.13
2023-05-08T05:18:25.471Z,66.74
2023-05-08T05:20:58.680Z,67.19
2023-05-08T05:23:29.550Z,67.66
2023-05-08T05:25:59.046Z,68.32
2023-05-08T05:28:30.158Z,68.74
2023-05-08T05:30:59.543Z,69.31
2023-05-08T05:33:30.748Z,69.49
2023-05-08T05:36:01.683Z,69.44
2023-05-08T05:38:31.208Z,69.44
2023-05-08T05:41:02.193Z,69.53
2023-05-08T05:43:33.621Z,69.47
2023-05-08T05:46:09.414Z,69.40
2023-05-08T05:48:40.740Z,69.32
2023-05-08T05:51:12.023Z,69.29
2023-05-08T05:53:43.975Z,69.06
2023-05-08T05:56:14.929Z,69.12
2023-05-08T05:58:45.950Z,68.86
2023-05-08T06:01:17.229Z,68.92
2023-05-08T06:03:46.709Z,68.47
2023-05-08T06:06:17.670Z,67.86
2023-05-08T06:08:49.089Z,67.51
2023-05-08T06:11:18.343Z,67.21
2023-05-08T06:13:50.584Z,67.19
2023-05-08T06:16:23.275Z,66.78
2023-05-08T06:18:54.638Z,66.42
2023-05-08T06:21:25.741Z,65.89
2023-05-08T06:23:56.881Z,65.96
2023-05-08T06:26:27.974Z,64.69
2023-05-08T06:28:57.495Z,64.25
2023-05-08T06:31:28.683Z,64.65
2023-05-08T06:34:01.625Z,63.99
2023-05-08T06:36:32.779Z,64.41
2023-05-08T06:39:05.215Z,63.90
2023-05-08T06:41:36.949Z,63.40
2023-05-08T06:44:08.037Z,63.58
2023-05-08T06:46:39.846Z,62.54
2023-05-08T06:49:10.754Z,62.41
2023-05-08T06:51:41.986Z,62.06
2023-05-08T06:54:12.945Z,61.98
2023-05-08T06:56:44.307Z,61.90
2023-05-08T06:59:15.348Z,61.38
2023-05-08T07:01:46.342Z,61.14
2023-05-08T07:04:17.357Z,60.62
2023-05-08T07:06:49.071Z,60.58
2023-05-08T07:09:20.112Z,59.66
2023-05-08T07:11:51.313Z,60.24
2023-05-08T07:14:22.836Z,59.30
2023-05-08T07:16:53.746Z,58.22
2023-05-08T07:19:25.089Z,57.35
2023-05-08T07:21:56.294Z,57.23
2023-05-08T07:24:27.679Z,57.46
2023-05-08T07:26:57.316Z,57.41
2023-05-08T07:29:28.656Z,58.42
2023-05-08T07:32:00.116Z,57.68
2023-05-08T07:34:31.343Z,58.18
2023-05-08T07:37:00.934Z,58.30
2023-05-08T07:39:30.857Z,57.59
2023-05-08T07:42:02.128Z,57.03
2023-05-08T07:44:43.666Z,57.53
2023-05-08T07:47:24.729Z,57.09
2023-05-08T07:49:55.978Z,55.81
2023-05-08T07:52:27.693Z,55.65
2023-05-08T07:54:59.421Z,55.09
2023-05-08T07:57:36.912Z,54.35
2023-05-08T08:00:11.661Z,53.14
2023-05-08T08:02:45.874Z,52.39
2023-05-08T08:05:17.283Z,52.61
2023-05-08T08:07:48.491Z,51.69
2023-05-08T08:10:19.351Z,51.29
2023-05-08T08:12:50.178Z,52.08
2023-05-08T08:15:21.907Z,49.81
2023-05-08T08:17:52.989Z,48.83
2023-05-08T08:20:24.311Z,49.24
2023-05-08T08:22:58.942Z,50.73
2023-05-08T08:25:30.787Z,50.62
2023-05-08T08:28:02.180Z,50.53
2023-05-08T08:30:33.409Z,48.17
2023-05-08T08:33:06.378Z,47.29
2023-05-08T08:35:38.230Z,48.44
2023-05-08T08:38:09.261Z,49.10
2023-05-08T08:40:43.494Z,48.75
2023-05-08T08:43:14.911Z,47.46
2023-05-08T08:45:46.050Z,47.93
2023-05-08T08:48:17.925Z,47.72
2023-05-08T08:50:52.537Z,47.37
2023-05-08T08:53:33.412Z,47.14
2023-05-08T08:56:07.120Z,46.54
2023-05-08T08:58:46.013Z,46.68
2023-05-08T09:01:20.627Z,46.97
2023-05-08T09:03:52.170Z,47.42
2023-05-08T09:06:23.804Z,46.31
2023-05-08T09:08:58.552Z,46.04
2023-05-08T09:11:30.200Z,44.28
2023-05-08T09:14:01.809Z,44.03
2023-05-08T09:16:33.225Z,42.74
2023-05-08T09:19:05.093Z,44.26
2023-05-08T09:21:37.214Z,43.08
2023-05-08T09:24:10.009Z,43.93
2023-05-08T09:26:42.649Z,44.45
2023-05-08T09:29:15.918Z,44.79
2023-05-08T09:31:50.358Z,42.35
2023-05-08T09:34:28.929Z,42.05
2023-05-08T09:37:14.332Z,41.07
2023-05-08T09:39:50.315Z,41.79
2023-05-08T09:42:23.199Z,41.67
2023-05-08T09:44:55.339Z,40.67
2023-05-08T09:47:27.021Z,40.78
2023-05-08T09:50:02.405Z,41.22
2023-05-08T09:52:34.507Z,41.10
2023-05-08T09:55:08.067Z,40.69
2023-05-08T09:57:41.072Z,40.54
2023-05-08T10:00:14.671Z,41.29
2023-05-08T10:02:58.192Z,39.55
2023-05-08T10:05:32.214Z,38.13
2023-05-08T10:08:21.666Z,38.71
2023-05-08T10:10:53.426Z,40.47
2023-05-08T10:13:26.332Z,38.66
2023-05-08T10:15:58.126Z,39.14
2023-05-08T10:18:36.363Z,39.73
2023-05-08T10:21:10.137Z,38.32
2023-05-08T10:23:43.501Z,38.59
2023-05-08T10:26:20.361Z,40.26
2023-05-08T10:28:57.969Z,40.52
2023-05-08T10:31:32.470Z,40.38
2023-05-08T10:34:04.159Z,41.22
2023-05-08T10:36:36.885Z,41.94
2023-05-08T10:39:08.337Z,41.45
2023-05-08T10:41:41.268Z,38.55
2023-05-08T10:44:12.970Z,36.56
2023-05-08T10:46:51.432Z,35.51
2023-05-08T10:49:32.881Z,35.03
2023-05-08T10:52:17.413Z,35.84
2023-05-08T10:55:24.443Z,34.33
2023-05-08T10:58:15.039Z,36.39
2023-05-08T11:01:19.775Z,38.09
2023-05-08T11:03:51.970Z,37.53
2023-05-08T11:06:50.044Z,33.71
2023-05-08T11:09:28.997Z,35.27
2023-05-08T11:12:25.341Z,34.40
2023-05-08T11:15:02.974Z,33.97
2023-05-08T11:17:34.779Z,35.32
2023-05-08T11:20:07.674Z,35.92
2023-05-08T11:22:39.517Z,35.80
2023-05-08T11:25:14.722Z,34.02
2023-05-08T11:28:13.996Z,34.89
2023-05-08T11:30:47.344Z,38.76
2023-05-08T11:33:21.378Z,37.28
2023-05-08T11:35:55.342Z,36.65
2023-05-08T11:38:32.526Z,37.29
2023-05-08T11:41:05.339Z,38.12
2023-05-08T11:43:50.914Z,38.64
2023-05-08T11:46:22.917Z,38.54
2023-05-08T11:49:05.096Z,36.32
2023-05-08T11:51:56.464Z,36.05
2023-05-08T11:54:32.995Z,36.87
2023-05-08T11:57:07.397Z,36.71
2023-05-08T11:59:44.002Z,37.15
2023-05-08T12:02:15.410Z,36.75
2023-05-08T12:04:49.850Z,37.23
2023-05-08T12:07:22.223Z,35.72
2023-05-08T12:09:53.378Z,35.34
2023-05-08T12:12:24.338Z,34.27
2023-05-08T12:14:55.338Z,34.73
2023-05-08T12:17:26.679Z,35.74
2023-05-08T12:20:04.057Z,36.13
2023-05-08T12:22:35.333Z,35.75
2023-05-08T12:25:08.213Z,35.43
2023-05-08T12:27:40.453Z,35.64
2023-05-08T12:30:14.266Z,35.80
2023-05-08T12:32:45.878Z,36.50
2023-05-08T12:35:18.229Z,36.47
2023-05-08T12:37:49.275Z,38.06
2023-05-08T12:40:31.571Z,37.49
2023-05-08T12:43:05.069Z,36.94
2023-05-08T12:45:39.283Z,36.66
2023-05-08T12:48:12.129Z,36.75
2023-05-08T12:50:46.151Z,36.38
2023-05-08T12:53:20.704Z,35.36
2023-05-08T12:55:57.165Z,34.19
2023-05-08T12:58:29.967Z,35.06
2023-05-08T13:01:10.239Z,34.87
2023-05-08T13:03:42.425Z,35.18
2023-05-08T13:06:25.519Z,35.61
2023-05-08T13:08:57.174Z,36.49
2023-05-08T13:11:34.807Z,37.04
2023-05-08T13:14:06.001Z,36.78
2023-05-08T13:16:47.741Z,37.06
2023-05-08T13:19:19.107Z,36.17
2023-05-08T13:21:50.289Z,35.83
2023-05-08T13:24:21.549Z,36.76
2023-05-08T13:26:52.732Z,36.76
2023-05-08T13:29:24.324Z,36.68
2023-05-08T13:31:55.279Z,36.58
2023-05-08T13:34:26.559Z,36.46
2023-05-08T13:36:57.564Z,37.17
2023-05-08T13:39:29.190Z,37.53
2023-05-08T13:42:00.197Z,36.54
2023-05-08T13:44:31.302Z,36.72
2023-05-08T13:47:02.326Z,36.97
2023-05-08T13:49:34.055Z,36.91
2023-05-08T13:52:05.351Z,36.57
2023-05-08T13:54:36.456Z,36.77
2023-05-08T13:57:08.172Z,36.99
2023-05-08T13:59:39.324Z,35.79
2023-05-08T14:02:10.391Z,36.10
2023-05-08T14:04:50.736Z,36.88
2023-05-08T14:07:21.754Z,35.94
2023-05-08T14:09:52.825Z,33.88
2023-05-08T14:12:23.837Z,34.83
2023-05-08T14:14:54.992Z,32.95
2023-05-08T14:17:25.942Z,33.14
2023-05-08T14:19:57.219Z,32.83
2023-05-08T14:22:28.020Z,32.45
2023-05-08T14:24:59.013Z,31.74
2023-05-08T14:27:30.200Z,31.75
2023-05-08T14:30:01.458Z,31.73
2023-05-08T14:32:35.490Z,31.23
2023-05-08T14:35:07.015Z,31.97
2023-05-08T14:37:38.016Z,31.62
2023-05-08T14:40:10.877Z,32.01
2023-05-08T14:42:41.832Z,31.97
2023-05-08T14:45:14.224Z,32.01
2023-05-08T14:47:45.539Z,33.46
2023-05-08T14:50:16.689Z,32.40
2023-05-08T14:52:48.353Z,32.54
2023-05-08T14:55:21.250Z,32.86
2023-05-08T14:57:52.882Z,33.89
2023-05-08T15:00:27.014Z,33.78
2023-05-08T15:02:58.330Z,33.28
2023-05-08T15:05:29.730Z,33.86
2023-05-08T15:08:02.690Z,34.38
2023-05-08T15:10:34.194Z,34.63
2023-05-08T15:13:05.471Z,34.44
2023-05-08T15:15:36.581Z,33.46
2023-05-08T15:18:07.894Z,33.27
2023-05-08T15:20:39.163Z,33.18
2023-05-08T15:23:10.119Z,33.52
2023-05-08T15:25:41.124Z,33.66
2023-05-08T15:28:12.767Z,33.71
2023-05-08T15:30:46.176Z,33.98
2023-05-08T15:33:17.817Z,34.17
2023-05-08T15:35:49.187Z,35.25
2023-05-08T15:38:20.132Z,34.54
2023-05-08T15:40:51.189Z,33.81
2023-05-08T15:43:22.251Z,33.79
2023-05-08T15:45:53.277Z,33.93
2023-05-08T15:48:24.485Z,34.03
2023-05-08T15:50:56.068Z,34.05
2023-05-08T15:53:27.212Z,33.93
2023-05-08T15:55:58.146Z,32.65
2023-05-08T15:58:29.108Z,32.03
2023-05-08T16:01:00.375Z,32.78
2023-05-08T16:03:31.756Z,32.49
2023-05-08T16:06:03.188Z,33.09
2023-05-08T16:08:34.339Z,33.94
2023-05-08T16:11:05.528Z,34.84
2023-05-08T16:13:36.670Z,35.55
2023-05-08T16:16:08.348Z,35.52
2023-05-08T16:18:39.366Z,34.89
2023-05-08T16:21:13.290Z,34.19
2023-05-08T16:23:44.440Z,34.20
2023-05-08T16:26:16.673Z,35.05
2023-05-08T16:28:49.950Z,35.52
2023-05-08T16:31:21.081Z,35.87
2023-05-08T16:33:52.036Z,35.05
2023-05-08T16:36:23.123Z,34.20
2023-05-08T16:38:54.239Z,33.25
2023-05-08T16:41:26.473Z,33.91
2023-05-08T16:43:57.540Z,34.08
2023-05-08T16:46:30.430Z,33.67
2023-05-08T16:49:01.719Z,34.19
2023-05-08T16:51:33.071Z,34.08
2023-05-08T16:54:04.171Z,34.19
2023-05-08T16:56:35.642Z,34.10
2023-05-08T16:59:07.102Z,34.53
2023-05-08T17:01:38.249Z,34.61
2023-05-08T17:04:09.691Z,35.13
2023-05-08T17:06:41.500Z,35.05
2023-05-08T17:09:12.658Z,36.14
2023-05-08T17:11:43.768Z,36.90
2023-05-08T17:14:14.738Z,37.47
2023-05-08T17:16:45.710Z,37.66
2023-05-08T17:19:16.845Z,37.63
2023-05-08T17:21:48.106Z,37.81
2023-05-08T17:24:19.694Z,37.81
2023-05-08T17:26:50.793Z,38.15
2023-05-08T17:29:21.723Z,38.68
2023-05-08T17:31:52.921Z,39.05
2023-05-08T17:34:24.473Z,39.37
2023-05-08T17:36:55.822Z,39.82
2023-05-08T17:39:27.453Z,40.44
2023-05-08T17:41:58.496Z,41.42
2023-05-08T17:44:29.520Z,41.91
2023-05-08T17:47:00.549Z,42.16
2023-05-08T17:49:31.804Z,42.47
2023-05-08T17:52:03.608Z,42.96
2023-05-08T17:54:34.956Z,43.32
2023-05-08T17:57:06.674Z,43.72
2023-05-08T17:59:37.846Z,44.11
2023-05-08T18:02:09.127Z,44.48
2023-05-08T18:04:40.437Z,44.94
2023-05-08T18:07:11.393Z,45.46
2023-05-08T18:09:42.802Z,45.90
2023-05-08T18:12:13.849Z,46.14
2023-05-08T18:14:45.429Z,46.59
2023-05-08T18:17:19.302Z,46.86
2023-05-08T18:19:50.645Z,47.20
2023-05-08T18:22:21.919Z,47.73
2023-05-08T18:24:54.414Z,47.90
2023-05-08T18:27:26.571Z,48.49
2023-05-08T18:29:58.237Z,49.09
2023-05-08T18:32:29.505Z,49.62
2023-05-08T18:35:00.640Z,49.88
2023-05-08T18:37:31.707Z,50.20
2023-05-08T18:40:03.596Z,50.48
2023-05-08T18:42:32.884Z,50.62
2023-05-08T18:45:06.301Z,50.84
2023-05-08T18:47:37.434Z,51.01
2023-05-08T18:50:10.493Z,51.06
2023-05-08T18:52:41.546Z,51.40
2023-05-08T18:55:11.402Z,51.50
2023-05-08T18:57:42.468Z,51.78
2023-05-08T19:00:13.683Z,51.77
2023-05-08T19:02:45.148Z,51.88
2023-05-08T19:05:16.245Z,51.97
2023-05-08T19:07:47.349Z,52.28
2023-05-08T19:10:18.470Z,52.23
2023-05-08T19:12:50.910Z,52.42
2023-05-08T19:15:22.382Z,52.36
2023-05-08T19:17:53.448Z,52.38
2023-05-08T19:20:24.932Z,52.44
2023-05-08T19:22:56.139Z,52.35
2023-05-08T19:25:27.628Z,52.61
2023-05-08T19:27:58.812Z,52.66
2023-05-08T19:30:28.213Z,52.60
2023-05-08T19:32:59.192Z,52.66
2023-05-08T19:35:28.642Z,52.97
2023-05-08T19:37:59.716Z,52.92
2023-05-08T19:40:30.953Z,53.00
2023-05-08T19:43:01.947Z,53.09
2023-05-08T19:45:32.968Z,53.33
2023-05-08T19:48:08.141Z,53.31
2023-05-08T19:50:44.681Z,53.60
2023-05-08T19:53:17.288Z,53.76
2023-05-08T19:55:49.453Z,53.64
2023-05-08T19:58:20.722Z,53.98
2023-05-08T20:00:52.092Z,53.94
2023-05-08T20:03:23.213Z,53.99
2023-05-08T20:05:54.749Z,54.00
2023-05-08T20:08:25.851Z,53.98
2023-05-08T20:10:58.013Z,53.82
2023-05-08T20:13:29.369Z,53.86
2023-05-08T20:16:00.749Z,53.91
2023-05-08T20:18:30.477Z,54.06
2023-05-08T20:21:01.540Z,54.12
2023-05-08T20:23:33.050Z,54.18
2023-05-08T20:26:05.290Z,54.25
2023-05-08T20:28:37.153Z,54.21
2023-05-08T20:31:08.158Z,54.40
2023-05-08T20:33:39.410Z,54.57
2023-05-08T20:36:08.954Z,54.53
2023-05-08T20:38:39.878Z,54.74
2023-05-08T20:41:09.363Z,54.77
2023-05-08T20:43:40.627Z,54.83
2023-05-08T20:46:11.808Z,55.03
2023-05-08T20:48:43.564Z,55.26
2023-05-08T20:51:15.940Z,55.25
2023-05-08T20:53:47.605Z,55.36
2023-05-08T20:56:21.774Z,55.49
2023-05-08T20:58:53.242Z,55.49
2023-05-08T21:01:24.431Z,55.82
2023-05-08T21:03:55.541Z,55.81
2023-05-08T21:06:24.945Z,55.79
2023-05-08T21:08:57.855Z,55.93
2023-05-08T21:11:28.975Z,55.99
2023-05-08T21:14:00.226Z,56.08
2023-05-08T21:16:31.215Z,56.22
2023-05-08T21:19:00.750Z,56.28
2023-05-08T21:21:31.808Z,56.40
2023-05-08T21:24:03.069Z,56.55
2023-05-08T21:26:33.993Z,56.79
2023-05-08T21:29:04.489Z,56.89
2023-05-08T21:31:36.317Z,56.97
2023-05-08T21:34:08.044Z,57.00
2023-05-08T21:36:39.191Z,56.95
2023-05-08T21:39:09.220Z,57.02
2023-05-08T21:41:40.206Z,57.21
2023-05-08T21:44:11.582Z,57.29
2023-05-08T21:46:42.962Z,57.37
2023-05-08T21:49:14.349Z,57.32
2023-05-08T21:51:45.892Z,57.45
2023-05-08T21:54:17.191Z,57.45
2023-05-08T21:56:48.841Z,57.52
2023-05-08T21:59:18.137Z,57.49
2023-05-08T22:01:49.435Z,57.75
2023-05-08T22:04:20.840Z,57.66
2023-05-08T22:06:52.003Z,57.60
2023-05-08T22:09:22.972Z,57.70
2023-05-08T22:11:54.103Z,57.70
2023-05-08T22:14:25.395Z,57.58
2023-05-08T22:16:56.460Z,57.70
2023-05-08T22:19:28.227Z,57.67
2023-05-08T22:21:59.407Z,57.78
2023-05-08T22:24:30.379Z,58.01
2023-05-08T22:27:01.306Z,58.08
2023-05-08T22:29:32.909Z,58.18
2023-05-08T22:32:04.121Z,58.04
2023-05-08T22:34:33.507Z,58.05
2023-05-08T22:37:04.984Z,58.17
2023-05-08T22:39:34.572Z,58.15
2023-05-08T22:42:06.439Z,58.31
2023-05-08T22:44:37.855Z,58.38
2023-05-08T22:47:09.622Z,58.56
2023-05-08T22:49:43.294Z,58.91
2023-05-08T22:52:14.513Z,59.42
2023-05-08T22:54:45.702Z,60.15
2023-05-08T22:57:16.776Z,60.37
2023-05-08T22:59:47.796Z,60.54
2023-05-08T23:02:18.851Z,60.68
2023-05-08T23:04:50.413Z,61.07
2023-05-08T23:07:21.899Z,61.29
2023-05-08T23:09:52.759Z,61.56
2023-05-08T23:12:23.829Z,61.66
2023-05-08T23:14:53.520Z,61.79
2023-05-08T23:17:25.324Z,61.92
2023-05-08T23:19:56.650Z,61.92
2023-05-08T23:22:28.693Z,62.14
2023-05-08T23:25:00.011Z,62.33
2023-05-08T23:27:31.357Z,62.58
2023-05-08T23:30:02.660Z,62.80
2023-05-08T23:32:33.672Z,62.95
2023-05-08T23:35:05.012Z,63.05
2023-05-08T23:37:34.316Z,63.29
2023-05-08T23:40:07.080Z,63.36
2023-05-08T23:42:38.326Z,63.57
2023-05-08T23:45:12.210Z,63.60
2023-05-08T23:47:43.532Z,63.65
2023-05-08T23:50:15.293Z,63.76
2023-05-08T23:52:46.419Z,64.06
2023-05-08T23:55:16.177Z,64.21
2023-05-08T23:57:47.629Z,64.55
